Pittsburgh, PA (15206)

2:47 PM EDT on August 27, 2014 (GMT -0400)
Bloomfield | Change Station
CLOSE
Current Station
Personal Weather Station
Location: Pittsburgh, PA
Elevation: 958 ft
Nearby Weather Stations

Elev 958 ft 40.47 °N, 79.95 °W | Updated 1 second ago

Mostly Cloudy
Mostly Cloudy
92.1 °F
Feels Like 100 °F
N
2.4
Wind Variable Wind from West
Gusts 9.8 mph

Today
High -- | Low -- °F
--% Chance of Precip.
Yesterday
High -- | Low -- °F
Precip. -- in
6:42 AM 7:59 PM
Waxing Crescent, 4% visible
Pressure 30.04 in
Visibility 7.0 miles
Clouds Scattered Clouds 2900 ft
Scattered Clouds 4700 ft
Mostly Cloudy 6000 ft
Heat Index 100 °F
Dew Point 72 °F
Humidity 52%
Rainfall 0.00 in
Snow Depth Not available.
UV 5 out of 12
Pollen 10.40 out of 12
Ozone Good
PM2.5 Moderate
Flu Activity Not available.
METAR KAGC 271753Z 00000KT 7SM SCT029 SCT047 BKN060 28/21 A3005 RMK AO2 SLP172 T02780211 10283 20189 58015

More Conditions Fewer Conditions

Pressure 30.04 in
Visibility 7.0 miles
Clouds Scattered Clouds 2900 ft
Scattered Clouds 4700 ft
Mostly Cloudy 6000 ft
Heat Index 100 °F
Dew Point 72 °F
Humidity 52%
Rainfall 0.00 in
Snow Depth Not available.
UV 5 out of 12
Pollen 10.40 out of 12
Ozone Good
PM2.5 Moderate
Flu Activity Not available.
METAR KAGC 271753Z 00000KT 7SM SCT029 SCT047 BKN060 28/21 A3005 RMK AO2 SLP172 T02780211 10283 20189 58015

More Conditions Fewer Conditions

10-Day Weather Forecast

Almanac

Astronomy

Aug. 27, 2014 Rise Set
Actual Time 6:42 AM EDT 7:59 PM EDT
Civil Twilight 6:13 AM EDT 8:27 PM EDT
Nautical Twilight 5:39 AM EDT 9:01 PM EDT
Astronomical Twilight 5:04 AM EDT 9:37 PM EDT
Moon 8:37 AM EDT 8:50 PM EDT
Length of Visible Light 14h 13m
Length of Day
13h 17m
Tomorrow will be 2m 31s shorter.
Waxing Crescent, 4% of the Moon is Illuminated
Today
Waxing Crescent
Sep 2
First Quarter
Sep 8
Full
Sep 15
Last Quarter
Sep 24
New

Today's Extremes

State Highs State Lows

Community

WunderPhotos

Upload Photos

1,747,752 photos uploaded!

Nearby

Air Quality

  Air Quality AQ Index Pollutant
Yesterday Moderate
OZONE
Yesterday Moderate
PM2.5
Current Moderate
PM2.5
Current Good
OZONE
Wednesday Moderate
OZONE
Wednesday Moderate
PM2.5
Thursday Good
PM2.5
Thursday Good
OZONE

Snow Depth

Station Depth Elevation
No new snow has been reported.

Earthquake Activity

City Distance Mag. Time & Date
No recent earthquake activity has been reported nearby.
Minimum magnitude displayed is 2.5.

Coastal Water Temperatures

Place Temperature
No Stations Reporting

Nearby Weather Stations